Neguac, Canada
Current Conditions -  °F | °C
As of 9:00 PM on Monday 26 Jan 2015 (Local Time) from CZBF Reporting Station
Overcast Overcast  
Wind Chill:   Ceiling: 25000
Heat Index:   Visibility: 15mi
Dew Point: -13°   Wind: 3mph
Humidity: 55%   Direction: 330°NNW
Pressure: 30.37"   Gusts: NA
Location:  47.23°N, 65.05°W
Report Text: CZBF 270100Z 33003KT 15SM OVC250 M18/M25 A3037 RMK CS8 HALO SLP292
Loading
Personal Weather Stations






























Interactive Weather Map New forecast layout! Learn more

10-Day Weather Forecast

Advertisements
Track Severe Weather on mobile